createdAt,value
2019-02-27T00:00:04.490Z,4.5
2019-02-27T00:05:02.674Z,4.3
2019-02-27T00:10:05.919Z,4.3
2019-02-27T00:15:05.114Z,4.0
2019-02-27T00:20:05.077Z,4.0
2019-02-27T00:25:03.476Z,4.0
2019-02-27T00:30:04.823Z,4.0
2019-02-27T00:35:06.428Z,4.0
2019-02-27T00:40:05.325Z,4.0
2019-02-27T00:45:06.867Z,3.7
2019-02-27T00:50:05.869Z,3.7
2019-02-27T00:55:04.642Z,3.7
2019-02-27T01:00:06.323Z,4.0
2019-02-27T01:05:02.646Z,3.7
2019-02-27T01:10:03.055Z,3.7
2019-02-27T01:15:02.410Z,3.7
2019-02-27T01:20:02.751Z,3.7
2019-02-27T01:25:03.093Z,3.7
2019-02-27T01:30:02.508Z,3.7
2019-02-27T01:35:02.856Z,3.7
2019-02-27T01:40:03.294Z,3.2
2019-02-27T01:45:02.718Z,3.2
2019-02-27T01:50:03.054Z,3.2
2019-02-27T01:55:06.570Z,3.0
2019-02-27T02:00:03.022Z,2.9
2019-02-27T02:05:02.455Z,2.7
2019-02-27T02:10:02.881Z,2.7
2019-02-27T02:15:03.220Z,2.5
2019-02-27T02:20:02.639Z,2.5
2019-02-27T02:25:02.972Z,2.4
2019-02-27T02:30:02.403Z,2.2
2019-02-27T02:35:02.772Z,2.2
2019-02-27T02:40:03.180Z,2.0
2019-02-27T02:45:02.599Z,2.2
2019-02-27T02:50:03.050Z,2.2
2019-02-27T02:55:02.463Z,2.2
2019-02-27T03:00:02.822Z,2.2
2019-02-27T03:05:03.148Z,2.2
2019-02-27T03:10:06.991Z,2.0
2019-02-27T03:15:02.396Z,2.0
2019-02-27T03:20:02.879Z,2.0
2019-02-27T03:25:05.183Z,2.0
2019-02-27T03:30:02.903Z,2.0
2019-02-27T03:35:03.305Z,2.2
2019-02-27T03:40:02.809Z,2.2
2019-02-27T03:45:03.229Z,2.2
2019-02-27T03:50:02.635Z,2.2
2019-02-27T03:55:03.092Z,1.8
2019-02-27T04:00:02.435Z,1.8
2019-02-27T04:05:07.103Z,2.2
2019-02-27T04:10:02.862Z,2.0
2019-02-27T04:15:03.210Z,1.8
2019-02-27T04:20:02.661Z,1.8
2019-02-27T04:25:03.112Z,1.7
2019-02-27T04:30:02.481Z,1.7
2019-02-27T04:35:05.962Z,1.6
2019-02-27T04:40:02.797Z,1.6
2019-02-27T04:45:03.239Z,1.6
2019-02-27T04:50:02.626Z,1.6
2019-02-27T04:55:03.013Z,1.6
2019-02-27T05:00:02.382Z,1.3
2019-02-27T05:05:02.758Z,1.6
2019-02-27T05:10:06.949Z,1.3
2019-02-27T05:15:04.070Z,1.3
2019-02-27T05:20:03.369Z,1.3
2019-02-27T05:25:02.787Z,1.3
2019-02-27T05:30:02.831Z,1.6
2019-02-27T05:35:03.273Z,1.7
2019-02-27T05:40:02.784Z,1.7
2019-02-27T05:45:03.232Z,1.8
2019-02-27T05:50:02.641Z,2.0
2019-02-27T05:55:06.078Z,2.0
2019-02-27T06:00:03.484Z,2.2
2019-02-27T06:05:02.946Z,2.0
2019-02-27T06:10:02.482Z,2.0
2019-02-27T06:15:02.919Z,2.0
2019-02-27T06:20:07.648Z,2.0
2019-02-27T06:25:02.906Z,2.0
2019-02-27T06:30:03.301Z,2.2
2019-02-27T06:35:02.702Z,2.0
2019-02-27T06:40:04.782Z,1.7
2019-02-27T06:45:02.568Z,1.8
2019-02-27T06:50:03.119Z,1.7
2019-02-27T06:55:02.581Z,1.8
2019-02-27T07:00:03.181Z,1.8
2019-02-27T07:05:02.604Z,1.8
2019-02-27T07:10:03.050Z,2.2
2019-02-27T07:15:02.473Z,2.2
2019-02-27T07:20:02.938Z,2.4
2019-02-27T07:25:06.410Z,2.5
2019-02-27T07:30:04.996Z,2.7
2019-02-27T07:35:02.711Z,3.0
2019-02-27T07:40:08.197Z,3.2
2019-02-27T07:45:02.774Z,3.7
2019-02-27T07:50:06.212Z,3.7
2019-02-27T07:55:01.638Z,4.0
2019-02-27T08:00:03.273Z,4.5
2019-02-27T08:05:02.696Z,4.8
2019-02-27T08:10:04.636Z,5.3
2019-02-27T08:15:03.179Z,5.4
2019-02-27T08:20:02.604Z,5.9
2019-02-27T08:25:03.037Z,7.1
2019-02-27T08:30:02.483Z,8.0
2019-02-27T08:35:02.904Z,9.0
2019-02-27T08:40:03.346Z,10.1
2019-02-27T08:45:02.773Z,10.1
2019-02-27T08:50:03.109Z,10.3
2019-02-27T08:55:05.394Z,10.3
2019-02-27T09:00:02.467Z,10.3
2019-02-27T09:05:02.812Z,11.3
2019-02-27T09:10:03.250Z,11.3
2019-02-27T09:15:02.658Z,11.3
2019-02-27T09:20:03.006Z,11.6
2019-02-27T09:25:02.351Z,12.0
2019-02-27T09:30:02.875Z,12.0
2019-02-27T09:35:03.400Z,12.5
2019-02-27T09:40:05.642Z,13.5
2019-02-27T09:45:03.281Z,13.1
2019-02-27T09:50:02.705Z,13.1
2019-02-27T09:55:03.151Z,14.3
2019-02-27T10:00:02.961Z,14.6
2019-02-27T10:05:03.554Z,14.3
2019-02-27T10:10:03.252Z,14.3
2019-02-27T10:15:02.657Z,14.8
2019-02-27T10:20:03.035Z,14.8
2019-02-27T10:25:02.414Z,15.6
2019-02-27T10:30:11.108Z,15.0
2019-02-27T10:35:02.997Z,15.8
2019-02-27T10:40:02.434Z,15.6
2019-02-27T10:45:02.768Z,16.0
2019-02-27T10:50:03.195Z,16.6
2019-02-27T10:55:02.687Z,15.8
2019-02-27T11:00:02.271Z,16.7
2019-02-27T11:05:02.692Z,16.7
2019-02-27T11:10:03.133Z,17.7
2019-02-27T11:15:02.550Z,17.5
2019-02-27T11:20:02.987Z,17.7
2019-02-27T11:25:02.415Z,17.5
2019-02-27T11:30:03.210Z,18.2
2019-02-27T11:35:02.694Z,18.6
2019-02-27T11:40:05.392Z,18.6
2019-02-27T11:45:03.166Z,19.0
2019-02-27T11:50:02.667Z,19.0
2019-02-27T11:55:03.023Z,18.7
2019-02-27T12:00:02.443Z,19.3
2019-02-27T12:05:02.789Z,20.0
2019-02-27T12:10:03.228Z,19.7
2019-02-27T12:15:02.638Z,19.3
2019-02-27T12:20:03.086Z,20.1
2019-02-27T12:25:02.499Z,20.3
2019-02-27T12:30:03.976Z,20.2
2019-02-27T12:35:03.125Z,20.1
2019-02-27T12:40:02.737Z,19.7
2019-02-27T12:45:03.157Z,19.7
2019-02-27T12:50:02.602Z,19.7
2019-02-27T12:55:03.026Z,20.2
2019-02-27T13:00:02.466Z,21.0
2019-02-27T13:05:02.914Z,19.5
2019-02-27T13:10:02.407Z,21.2
2019-02-27T13:15:06.480Z,20.6
2019-02-27T13:20:03.183Z,20.2
2019-02-27T13:25:02.630Z,20.2
2019-02-27T13:30:08.885Z,20.1
2019-02-27T13:35:02.665Z,20.7
2019-02-27T13:40:03.118Z,20.2
2019-02-27T13:45:02.526Z,20.6
2019-02-27T13:50:02.886Z,20.2
2019-02-27T13:55:03.353Z,20.3
2019-02-27T14:00:02.726Z,20.8
2019-02-27T14:05:03.093Z,20.6
2019-02-27T14:10:02.486Z,20.7
2019-02-27T14:15:02.840Z,20.7
2019-02-27T14:20:05.243Z,20.2
2019-02-27T14:25:02.639Z,20.7
2019-02-27T14:30:03.927Z,20.7
2019-02-27T14:35:02.865Z,21.2
2019-02-27T14:40:04.404Z,20.8
2019-02-27T14:45:05.595Z,20.7
2019-02-27T14:50:02.869Z,21.2
2019-02-27T14:55:03.726Z,20.6
2019-02-27T15:00:05.617Z,20.8
2019-02-27T15:05:06.088Z,20.8
2019-02-27T15:10:02.390Z,20.2
2019-02-27T15:15:02.719Z,20.3
2019-02-27T15:20:05.652Z,20.7
2019-02-27T15:25:07.862Z,20.6
2019-02-27T15:30:02.536Z,20.3
2019-02-27T15:35:02.853Z,20.7
2019-02-27T15:40:03.309Z,21.2
2019-02-27T15:45:03.206Z,20.7
2019-02-27T15:50:02.800Z,20.7
2019-02-27T15:55:03.190Z,20.2
2019-02-27T16:00:02.599Z,20.2
2019-02-27T16:05:02.988Z,20.2
2019-02-27T16:10:06.731Z,19.5
2019-02-27T16:15:03.192Z,19.5
2019-02-27T16:20:02.733Z,18.5
2019-02-27T16:25:03.082Z,17.7
2019-02-27T16:30:02.502Z,17.5
2019-02-27T16:35:04.322Z,17.1
2019-02-27T16:40:02.811Z,17.1
2019-02-27T16:45:03.214Z,16.6
2019-02-27T16:50:02.662Z,16.3
2019-02-27T16:55:03.091Z,16.2
2019-02-27T17:00:02.555Z,15.8
2019-02-27T17:05:05.733Z,15.6
2019-02-27T17:10:03.121Z,15.3
2019-02-27T17:15:02.796Z,15.1
2019-02-27T17:20:03.257Z,14.8
2019-02-27T17:25:02.658Z,14.6
2019-02-27T17:30:03.020Z,14.6
2019-02-27T17:35:02.429Z,14.3
2019-02-27T17:40:03.579Z,13.6
2019-02-27T17:45:03.119Z,13.3
2019-02-27T17:50:02.436Z,13.1
2019-02-27T17:55:03.474Z,12.6
2019-02-27T18:00:03.013Z,12.6
2019-02-27T18:05:02.407Z,12.6
2019-02-27T18:10:02.871Z,12.3
2019-02-27T18:15:03.226Z,11.8
2019-02-27T18:20:02.687Z,11.6
2019-02-27T18:25:04.751Z,11.8
2019-02-27T18:30:02.623Z,11.8
2019-02-27T18:35:03.076Z,11.8
2019-02-27T18:40:02.580Z,11.8
2019-02-27T18:45:03.032Z,11.6
2019-02-27T18:50:02.357Z,11.3
2019-02-27T18:55:02.800Z,11.8
2019-02-27T19:00:03.246Z,11.8
2019-02-27T19:05:02.651Z,12.0
2019-02-27T19:10:03.733Z,11.3
2019-02-27T19:15:03.061Z,11.1
2019-02-27T19:20:02.716Z,10.8
2019-02-27T19:25:03.105Z,11.0
2019-02-27T19:30:06.294Z,11.1
2019-02-27T19:35:02.438Z,11.3
2019-02-27T19:40:02.885Z,11.1
2019-02-27T19:45:04.384Z,11.0
2019-02-27T19:50:02.520Z,11.0
2019-02-27T19:55:03.025Z,10.8
2019-02-27T20:00:02.421Z,10.8
2019-02-27T20:05:02.860Z,10.8
2019-02-27T20:10:03.313Z,11.0
2019-02-27T20:15:02.689Z,11.0
2019-02-27T20:20:04.089Z,10.8
2019-02-27T20:25:02.561Z,10.8
2019-02-27T20:30:02.927Z,10.6
2019-02-27T20:35:03.342Z,10.6
2019-02-27T20:40:02.765Z,10.6
2019-02-27T20:45:03.210Z,10.1
2019-02-27T20:50:02.620Z,10.1
2019-02-27T20:55:02.992Z,10.1
2019-02-27T21:00:02.858Z,10.0
2019-02-27T21:05:03.341Z,9.6
2019-02-27T21:10:02.758Z,9.3
2019-02-27T21:15:03.211Z,9.3
2019-02-27T21:20:02.593Z,9.6
2019-02-27T21:25:02.984Z,9.3
2019-02-27T21:30:02.382Z,9.0
2019-02-27T21:35:02.818Z,8.6
2019-02-27T21:40:03.415Z,8.6
2019-02-27T21:45:03.702Z,8.5
2019-02-27T21:50:03.689Z,8.5
2019-02-27T21:55:02.842Z,8.1
2019-02-27T22:00:03.322Z,7.9
2019-02-27T22:05:02.714Z,7.5
2019-02-27T22:10:03.154Z,7.5
2019-02-27T22:15:02.487Z,7.4
2019-02-27T22:20:02.994Z,7.5
2019-02-27T22:25:02.365Z,7.9
2019-02-27T22:30:02.774Z,8.1
2019-02-27T22:35:04.069Z,8.3
2019-02-27T22:40:06.590Z,8.5
2019-02-27T22:45:04.213Z,8.3
2019-02-27T22:50:05.873Z,8.1
2019-02-27T22:55:03.243Z,8.0
2019-02-27T23:00:02.610Z,8.1
2019-02-27T23:05:04.936Z,7.5
2019-02-27T23:10:02.499Z,7.5
2019-02-27T23:15:02.908Z,7.4
2019-02-27T23:20:03.348Z,7.4
2019-02-27T23:25:02.811Z,7.0
2019-02-27T23:30:03.540Z,6.9
2019-02-27T23:35:02.893Z,7.4
2019-02-27T23:40:03.408Z,7.1
2019-02-27T23:45:02.845Z,7.0
2019-02-27T23:50:03.284Z,7.0
2019-02-27T23:55:02.709Z,7.0
